This is the latest recevied weather packets stored in our database for station/object KJ4AJP. If no packets are shown the sender has not sent any weather packets the latest 1 day(s).
| Time | Temp. | Humidity | Pressure | Rain* | Wind** | Luminosity | Snow |
|---|---|---|---|---|---|---|---|
| 1778107141 | 12.78° C | 96% | 1013.8 hPa | 0 mm | - | 40 W/m² | - |
| 1778106534 | 12.78° C | 95% | 1013.9 hPa | 0 mm | - | 75 W/m² | - |
| 1778102896 | 12.78° C | 93% | 1014.6 hPa | 0 mm | - | 60 W/m² | - |
| 1778101681 | 12.78° C | 94% | 1014.7 hPa | 1.27 mm | - | 88 W/m² | - |
| 1778101377 | 12.78° C | 94% | 1014.5 hPa | 1.27 mm | - | 72 W/m² | - |
| 1778099559 | 12.78° C | 91% | 1015 hPa | 1.78 mm | - | 62 W/m² | - |
| 1778097740 | 13.33° C | 91% | 1014.5 hPa | 1.27 mm | - | 84 W/m² | - |
| 1778095618 | 13.89° C | 82% | 1015.4 hPa | 0 mm | - | 61 W/m² | - |
| 1778094405 | 13.89° C | 80% | 1014.7 hPa | 0 mm | - | 64 W/m² | - |
| 1778092586 | 13.89° C | 78% | 1014.6 hPa | 0 mm | - | 177 W/m² | - |
| 1778090768 | 13.89° C | 79% | 1015.1 hPa | 0 mm | - | 123 W/m² | - |
| 1778089556 | 13.89° C | 79% | 1014.6 hPa | 0 mm | - | 161 W/m² | - |
| 1778085618 | 13.89° C | 77% | 1015 hPa | 0 mm | - | 268 W/m² | - |
| 1778085010 | 13.89° C | 77% | 1014.5 hPa | 0 mm | - | 330 W/m² | - |
| 1778084101 | 13.33° C | 77% | 1014.3 hPa | 0 mm | - | 423 W/m² | - |
| 1778083798 | 13.33° C | 78% | 1014.5 hPa | 0 mm | - | 296 W/m² | - |
| 1778081474 | 12.22° C | 81% | 1015.2 hPa | 0 mm | - | 210 W/m² | - |
| 1778080869 | 12.22° C | 81% | 1015.3 hPa | 0 mm | - | 168 W/m² | - |
| 1778079657 | 11.67° C | 83% | 1014.8 hPa | 0 mm | - | 219 W/m² | - |
| 1778078748 | 11.11° C | 85% | 1014.7 hPa | 0 mm | - | 262 W/m² | - |
| 1778078445 | 10.56° C | 85% | 1014.4 hPa | 0 mm | - | 179 W/m² | - |
| 1778078143 | 10.56° C | 84% | 1014.4 hPa | 0 mm | - | 170 W/m² | - |
| 1778076934 | 10° C | 87% | 1014.2 hPa | 0 mm | - | 142 W/m² | - |
| 1778075723 | 10° C | 89% | 1013.9 hPa | 0 mm | - | 112 W/m² | - |
| 1778072994 | 9.44° C | 92% | 1013.3 hPa | 0 mm | - | 59 W/m² | - |
* Rain latest hour (hover to see other rain measurements)
** Current wind speed in m/s (hover to see current wind gust speed)